Time,TemperatureF,DewpointF,PressureIn,WindDirection,WindDirectionDegrees,WindSpeedMPH,WindSpeedGustMPH,Humidity,HourlyPrecipIn,Conditions,Clouds,dailyrainin,SoftwareType,DateUTC
2013-05-26 00:02:00,46.9,42.6,29.76,North,11,9.0,15.0,85,0.00,,,0.00,VWS V14.01,2013-05-26 04:02:00,
2013-05-26 00:12:00,46.8,42.2,29.76,ENE,59,2.0,15.0,84,0.00,,,0.00,VWS V14.01,2013-05-26 04:12:00,
2013-05-26 00:22:00,46.7,42.1,29.76,NE,50,1.0,12.0,84,0.00,,,0.00,VWS V14.01,2013-05-26 04:22:00,
2013-05-26 00:32:00,46.8,41.3,29.76,NE,51,4.0,13.0,81,0.00,,,0.00,VWS V14.01,2013-05-26 04:32:00,
2013-05-26 00:42:00,47.0,41.8,29.76,NE,47,4.0,17.0,82,0.00,,,0.00,VWS V14.01,2013-05-26 04:42:00,
2013-05-26 00:52:00,47.0,41.2,29.76,NE,39,1.0,15.0,80,0.00,,,0.00,VWS V14.01,2013-05-26 04:52:00,
2013-05-26 01:02:00,47.0,41.5,29.76,NE,56,4.0,13.0,81,0.00,,,0.00,VWS V14.01,2013-05-26 05:02:00,
2013-05-26 01:12:00,47.0,41.2,29.76,ENE,61,6.0,12.0,80,0.00,,,0.00,VWS V14.01,2013-05-26 05:12:00,
2013-05-26 01:22:00,47.0,41.2,29.75,ENE,65,1.0,11.0,80,0.00,,,0.00,VWS V14.01,2013-05-26 05:22:00,
2013-05-26 01:32:00,47.0,40.5,29.76,NE,47,4.0,10.0,78,0.00,,,0.00,VWS V14.01,2013-05-26 05:32:00,
2013-05-26 01:42:00,47.0,40.8,29.76,NE,54,2.0,9.0,79,0.00,,,0.00,VWS V14.01,2013-05-26 05:42:00,
2013-05-26 01:52:00,47.2,40.7,29.75,NNE,32,2.0,12.0,78,0.00,,,0.00,VWS V14.01,2013-05-26 05:52:00,
2013-05-26 02:02:00,47.2,41.0,29.75,NNE,19,2.0,10.0,79,0.00,,,0.00,VWS V14.01,2013-05-26 06:02:00,
2013-05-26 02:12:00,47.3,41.1,29.75,NE,39,3.0,15.0,79,0.00,,,0.00,VWS V14.01,2013-05-26 06:12:00,
2013-05-26 02:22:00,47.3,41.1,29.75,NE,34,1.0,15.0,79,0.00,,,0.00,VWS V14.01,2013-05-26 06:22:00,
2013-05-26 02:32:00,47.0,40.5,29.75,ENE,71,1.0,10.0,78,0.00,,,0.00,VWS V14.01,2013-05-26 06:32:00,
2013-05-26 02:42:00,46.7,40.5,29.75,ENE,72,2.0,5.0,79,0.00,,,0.00,VWS V14.01,2013-05-26 06:42:00,
2013-05-26 02:52:00,46.5,40.3,29.75,ENE,67,4.0,10.0,79,0.00,,,0.00,VWS V14.01,2013-05-26 06:52:00,
2013-05-26 03:02:00,46.4,40.6,29.75,East,80,2.0,11.0,80,0.00,,,0.00,VWS V14.01,2013-05-26 07:02:00,
2013-05-26 03:12:00,46.4,40.6,29.75,NE,42,4.0,10.0,80,0.00,,,0.00,VWS V14.01,2013-05-26 07:12:00,
2013-05-26 03:22:00,46.4,40.6,29.75,NE,42,2.0,11.0,80,0.00,,,0.00,VWS V14.01,2013-05-26 07:22:00,
2013-05-26 03:32:00,46.3,41.1,29.75,NNE,22,1.0,5.0,82,0.00,,,0.00,VWS V14.01,2013-05-26 07:32:00,
2013-05-26 03:42:00,46.6,40.8,29.75,NE,40,2.0,7.0,80,0.00,,,0.00,VWS V14.01,2013-05-26 07:42:00,
2013-05-26 03:52:00,47.0,41.2,29.75,WSW,242,4.0,13.0,80,0.00,,,0.00,VWS V14.01,2013-05-26 07:52:00,
2013-05-26 04:02:00,47.2,40.7,29.75,ESE,112,3.0,9.0,78,0.00,,,0.00,VWS V14.01,2013-05-26 08:02:00,
2013-05-26 04:12:00,47.5,41.3,29.75,NNE,28,1.0,8.0,79,0.00,,,0.00,VWS V14.01,2013-05-26 08:12:00,
2013-05-26 04:22:00,47.6,40.8,29.75,ENE,66,2.0,5.0,77,0.00,,,0.00,VWS V14.01,2013-05-26 08:22:00,
2013-05-26 04:32:00,47.7,40.8,29.75,ENE,65,2.0,9.0,77,0.00,,,0.00,VWS V14.01,2013-05-26 08:32:00,
2013-05-26 04:42:00,47.8,41.0,29.75,ENE,69,5.0,10.0,77,0.00,,,0.00,VWS V14.01,2013-05-26 08:42:00,
2013-05-26 04:52:00,47.8,41.3,29.76,NE,46,2.0,9.0,78,0.00,,,0.00,VWS V14.01,2013-05-26 08:52:00,
2013-05-26 05:02:00,47.8,41.0,29.76,NE,49,1.0,11.0,77,0.00,,,0.00,VWS V14.01,2013-05-26 09:02:00,
2013-05-26 05:12:00,48.1,40.9,29.76,NW,324,2.0,15.0,76,0.00,,,0.00,VWS V14.01,2013-05-26 09:12:00,
2013-05-26 05:22:00,48.3,40.8,29.76,NE,44,2.0,16.0,75,0.00,,,0.00,VWS V14.01,2013-05-26 09:22:00,
2013-05-26 05:32:00,48.4,40.8,29.77,NE,42,5.0,10.0,75,0.00,,,0.00,VWS V14.01,2013-05-26 09:32:00,
2013-05-26 05:42:00,48.2,41.0,29.77,ENE,78,1.0,7.0,76,0.00,,,0.00,VWS V14.01,2013-05-26 09:42:00,
2013-05-26 05:52:00,48.1,40.6,29.78,ENE,65,1.0,8.0,75,0.00,,,0.00,VWS V14.01,2013-05-26 09:52:00,
2013-05-26 06:02:00,47.9,41.4,29.78,NE,42,4.0,5.0,78,0.00,,,0.00,VWS V14.01,2013-05-26 10:02:00,
2013-05-26 06:12:00,47.8,41.6,29.78,NE,48,1.0,5.0,79,0.00,,,0.00,VWS V14.01,2013-05-26 10:12:00,
2013-05-26 06:22:00,47.8,41.6,29.78,NE,46,1.0,4.0,79,0.00,,,0.00,VWS V14.01,2013-05-26 10:22:00,
2013-05-26 06:32:00,47.6,41.1,29.79,NE,51,3.0,5.0,78,0.00,,,0.00,VWS V14.01,2013-05-26 10:32:00,
2013-05-26 06:42:00,47.4,41.5,29.79,ENE,73,1.0,4.0,80,0.00,,,0.00,VWS V14.01,2013-05-26 10:42:00,
2013-05-26 06:52:00,47.6,41.1,29.80,ENE,69,2.0,7.0,78,0.00,,,0.00,VWS V14.01,2013-05-26 10:52:00,
2013-05-26 07:02:00,47.9,41.7,29.80,NNW,339,1.0,6.0,79,0.00,,,0.00,VWS V14.01,2013-05-26 11:02:00,
2013-05-26 07:12:00,48.1,41.6,29.80,East,82,3.0,11.0,78,0.00,,,0.00,VWS V14.01,2013-05-26 11:12:00,
2013-05-26 07:22:00,48.5,42.0,29.80,East,91,2.0,12.0,78,0.00,,,0.00,VWS V14.01,2013-05-26 11:22:00,
2013-05-26 07:32:00,49.4,42.2,29.80,NE,46,2.0,13.0,76,0.00,,,0.00,VWS V14.01,2013-05-26 11:32:00,
2013-05-26 07:42:00,50.1,42.5,29.80,East,94,1.0,12.0,75,0.00,,,0.00,VWS V14.01,2013-05-26 11:42:00,
2013-05-26 07:52:00,50.2,41.9,29.80,ENE,59,7.0,12.0,73,0.00,,,0.00,VWS V14.01,2013-05-26 11:52:00,
2013-05-26 08:02:00,50.4,42.4,29.80,East,82,1.0,12.0,74,0.00,,,0.00,VWS V14.01,2013-05-26 12:02:00,
2013-05-26 08:12:00,50.8,42.5,29.80,NE,56,1.0,10.0,73,0.00,,,0.00,VWS V14.01,2013-05-26 12:12:00,
2013-05-26 08:22:00,51.2,42.5,29.81,NE,53,4.0,13.0,72,0.00,,,0.00,VWS V14.01,2013-05-26 12:22:00,
2013-05-26 08:32:00,51.6,42.5,29.81,NE,44,2.0,14.0,71,0.00,,,0.00,VWS V14.01,2013-05-26 12:32:00,
2013-05-26 08:42:00,52.2,43.5,29.81,ENE,65,5.0,10.0,72,0.00,,,0.00,VWS V14.01,2013-05-26 12:42:00,
2013-05-26 08:52:00,52.9,41.9,29.81,ENE,65,5.0,15.0,66,0.00,,,0.00,VWS V14.01,2013-05-26 12:52:00,
2013-05-26 09:02:00,53.5,43.6,29.81,ENE,61,6.0,14.0,69,0.00,,,0.00,VWS V14.01,2013-05-26 13:02:00,
2013-05-26 09:12:00,53.7,41.8,29.81,ENE,57,5.0,14.0,64,0.00,,,0.00,VWS V14.01,2013-05-26 13:12:00,
2013-05-26 09:22:00,54.0,42.1,29.81,NNE,15,6.0,10.0,64,0.00,,,0.00,VWS V14.01,2013-05-26 13:22:00,
2013-05-26 09:32:00,54.1,41.8,29.81,ENE,60,11.0,21.0,63,0.00,,,0.00,VWS V14.01,2013-05-26 13:32:00,
2013-05-26 09:42:00,54.4,41.7,29.81,NE,37,1.0,14.0,62,0.00,,,0.00,VWS V14.01,2013-05-26 13:42:00,
2013-05-26 09:52:00,54.8,42.5,29.81,ENE,59,13.0,14.0,63,0.00,,,0.00,VWS V14.01,2013-05-26 13:52:00,
2013-05-26 10:02:00,55.0,42.7,29.81,ENE,67,4.0,20.0,63,0.00,,,0.00,VWS V14.01,2013-05-26 14:02:00,
2013-05-26 10:12:00,55.4,43.4,29.81,ENE,77,4.0,12.0,64,0.00,,,0.00,VWS V14.01,2013-05-26 14:12:00,
2013-05-26 10:22:00,55.4,41.3,29.81,West,260,2.0,20.0,59,0.00,,,0.00,VWS V14.01,2013-05-26 14:22:00,
2013-05-26 10:32:00,55.9,43.1,29.82,SW,234,3.0,13.0,62,0.00,,,0.00,VWS V14.01,2013-05-26 14:32:00,
2013-05-26 10:42:00,56.6,42.5,29.82,East,88,4.0,13.0,59,0.00,,,0.00,VWS V14.01,2013-05-26 14:42:00,
2013-05-26 10:52:00,56.6,42.0,29.82,NE,56,2.0,15.0,58,0.00,,,0.00,VWS V14.01,2013-05-26 14:52:00,
2013-05-26 11:02:00,57.1,42.9,29.82,NE,43,2.0,16.0,59,0.00,,,0.00,VWS V14.01,2013-05-26 15:02:00,
2013-05-26 11:12:00,56.2,42.5,29.82,NE,43,4.0,20.0,60,0.00,,,0.00,VWS V14.01,2013-05-26 15:12:00,
2013-05-26 11:22:00,56.4,42.7,29.83,East,91,4.0,19.0,60,0.00,,,0.00,VWS V14.01,2013-05-26 15:22:00,
2013-05-26 11:32:00,56.9,42.3,29.83,ENE,57,1.0,14.0,58,0.00,,,0.00,VWS V14.01,2013-05-26 15:32:00,
2013-05-26 11:42:00,57.4,42.8,29.83,NNW,348,2.0,14.0,58,0.00,,,0.00,VWS V14.01,2013-05-26 15:42:00,
2013-05-26 11:52:00,57.9,41.8,29.83,NE,36,5.0,13.0,55,0.00,,,0.00,VWS V14.01,2013-05-26 15:52:00,
2013-05-26 12:02:00,58.3,43.6,29.83,NE,54,5.0,15.0,58,0.00,,,0.00,VWS V14.01,2013-05-26 16:02:00,
2013-05-26 12:12:00,58.0,42.4,29.83,NE,50,4.0,14.0,56,0.00,,,0.00,VWS V14.01,2013-05-26 16:12:00,
2013-05-26 12:22:00,58.7,43.1,29.83,NE,53,18.0,18.0,56,0.00,,,0.00,VWS V14.01,2013-05-26 16:22:00,
2013-05-26 12:32:00,59.5,42.9,29.83,ENE,61,11.0,18.0,54,0.00,,,0.00,VWS V14.01,2013-05-26 16:32:00,
2013-05-26 12:42:00,59.6,42.5,29.83,ENE,75,5.0,13.0,53,0.00,,,0.00,VWS V14.01,2013-05-26 16:42:00,
2013-05-26 12:52:00,58.8,42.7,29.83,East,88,5.0,13.0,55,0.00,,,0.00,VWS V14.01,2013-05-26 16:52:00,
2013-05-26 13:02:00,59.3,41.7,29.83,NNE,23,2.0,10.0,52,0.00,,,0.00,VWS V14.01,2013-05-26 17:02:00,
2013-05-26 13:12:00,59.1,42.5,29.83,WSW,240,2.0,11.0,54,0.00,,,0.00,VWS V14.01,2013-05-26 17:12:00,
2013-05-26 13:22:00,60.1,42.4,29.84,ENE,68,2.0,11.0,52,0.00,,,0.00,VWS V14.01,2013-05-26 17:22:00,
2013-05-26 13:32:00,60.1,42.9,29.83,ENE,72,2.0,13.0,53,0.00,,,0.00,VWS V14.01,2013-05-26 17:32:00,
2013-05-26 13:42:00,60.0,41.8,29.83,NNE,26,5.0,13.0,51,0.00,,,0.00,VWS V14.01,2013-05-26 17:42:00,
2013-05-26 13:52:00,60.1,41.9,29.84,NE,43,5.0,17.0,51,0.00,,,0.00,VWS V14.01,2013-05-26 17:52:00,
2013-05-26 14:02:00,60.6,41.4,29.84,NE,40,3.0,13.0,49,0.00,,,0.00,VWS V14.01,2013-05-26 18:02:00,
2013-05-26 14:12:00,60.1,39.8,29.84,NNW,333,10.0,17.0,47,0.00,,,0.00,VWS V14.01,2013-05-26 18:12:00,
2013-05-26 14:22:00,60.4,41.2,29.85,ENE,71,4.0,19.0,49,0.00,,,0.00,VWS V14.01,2013-05-26 18:22:00,
2013-05-26 14:32:00,60.6,41.9,29.85,NE,43,2.0,15.0,50,0.00,,,0.00,VWS V14.01,2013-05-26 18:32:00,
2013-05-26 14:42:00,61.3,42.5,29.85,ENE,72,3.0,16.0,50,0.00,,,0.00,VWS V14.01,2013-05-26 18:42:00,
2013-05-26 14:52:00,61.8,40.8,29.85,East,83,3.0,18.0,46,0.00,,,0.00,VWS V14.01,2013-05-26 18:52:00,
2013-05-26 15:02:00,62.4,38.4,29.85,NE,34,12.0,24.0,41,0.00,,,0.00,VWS V14.01,2013-05-26 19:02:00,
2013-05-26 15:12:00,63.3,41.6,29.85,SSW,196,2.0,19.0,45,0.00,,,0.00,VWS V14.01,2013-05-26 19:12:00,
2013-05-26 15:22:00,64.0,41.7,29.85,NE,44,6.0,17.0,44,0.00,,,0.00,VWS V14.01,2013-05-26 19:22:00,
2013-05-26 15:32:00,64.7,42.3,29.85,NNE,21,7.0,20.0,44,0.00,,,0.00,VWS V14.01,2013-05-26 19:32:00,
2013-05-26 15:42:00,64.6,41.6,29.85,NNW,329,2.0,16.0,43,0.00,,,0.00,VWS V14.01,2013-05-26 19:42:00,
2013-05-26 15:52:00,65.3,40.4,29.86,ENE,78,6.0,20.0,40,0.00,,,0.00,VWS V14.01,2013-05-26 19:52:00,
2013-05-26 16:02:00,65.0,41.4,29.86,ENE,57,2.0,19.0,42,0.00,,,0.00,VWS V14.01,2013-05-26 20:02:00,
2013-05-26 16:12:00,66.2,41.2,29.86,SW,222,1.0,17.0,40,0.00,,,0.00,VWS V14.01,2013-05-26 20:12:00,
2013-05-26 16:22:00,66.4,40.0,29.87,SSW,202,2.0,16.0,38,0.00,,,0.00,VWS V14.01,2013-05-26 20:22:00,
2013-05-26 16:32:00,66.4,40.7,29.87,NE,49,3.0,17.0,39,0.00,,,0.00,VWS V14.01,2013-05-26 20:32:00,
2013-05-26 16:42:00,66.1,40.5,29.87,WSW,249,3.0,16.0,39,0.00,,,0.00,VWS V14.01,2013-05-26 20:42:00,
2013-05-26 16:52:00,66.7,42.3,29.87,NE,47,1.0,11.0,41,0.00,,,0.00,VWS V14.01,2013-05-26 20:52:00,
2013-05-26 17:02:00,67.4,42.9,29.88,ENE,61,1.0,12.0,41,0.00,,,0.00,VWS V14.01,2013-05-26 21:02:00,
2013-05-26 17:12:00,66.0,39.7,29.88,NE,40,1.0,12.0,38,0.00,,,0.00,VWS V14.01,2013-05-26 21:12:00,
2013-05-26 17:22:00,64.6,42.2,29.89,NE,36,2.0,9.0,44,0.00,,,0.00,VWS V14.01,2013-05-26 21:22:00,
2013-05-26 17:32:00,64.1,40.6,29.89,NE,55,5.0,14.0,42,0.00,,,0.00,VWS V14.01,2013-05-26 21:32:00,
2013-05-26 17:42:00,64.4,40.2,29.89,NW,305,5.0,14.0,41,0.00,,,0.00,VWS V14.01,2013-05-26 21:42:00,
2013-05-26 17:52:00,62.9,41.3,29.90,NE,47,4.0,9.0,45,0.00,,,0.00,VWS V14.01,2013-05-26 21:52:00,
2013-05-26 18:02:00,62.3,41.3,29.90,NE,45,1.0,7.0,46,0.00,,,0.00,VWS V14.01,2013-05-26 22:02:00,
2013-05-26 18:12:00,62.0,42.1,29.90,NNE,30,1.0,11.0,48,0.00,,,0.00,VWS V14.01,2013-05-26 22:12:00,
2013-05-26 18:22:00,62.5,42.0,29.92,NW,305,1.0,13.0,47,0.00,,,0.00,VWS V14.01,2013-05-26 22:22:00,
2013-05-26 18:32:00,62.3,40.7,29.93,East,79,7.0,9.0,45,0.00,,,0.00,VWS V14.01,2013-05-26 22:32:00,
2013-05-26 18:42:00,62.8,41.7,29.93,NNE,33,3.0,13.0,46,0.00,,,0.00,VWS V14.01,2013-05-26 22:42:00,
2013-05-26 18:52:00,63.2,42.7,29.94,NNW,334,2.0,13.0,47,0.00,,,0.00,VWS V14.01,2013-05-26 22:52:00,
2013-05-26 19:02:00,62.3,41.3,29.95,SSW,211,1.0,9.0,46,0.00,,,0.00,VWS V14.01,2013-05-26 23:02:00,
2013-05-26 19:12:00,61.1,41.3,29.95,West,271,1.0,4.0,48,0.00,,,0.00,VWS V14.01,2013-05-26 23:12:00,
2013-05-26 19:22:00,60.4,41.7,29.96,West,267,1.0,5.0,50,0.00,,,0.00,VWS V14.01,2013-05-26 23:22:00,
2013-05-26 19:32:00,59.6,41.5,29.96,NW,310,1.0,5.0,51,0.00,,,0.00,VWS V14.01,2013-05-26 23:32:00,
2013-05-26 19:42:00,58.9,41.8,29.96,North,355,1.0,4.0,53,0.00,,,0.00,VWS V14.01,2013-05-26 23:42:00,
2013-05-26 19:52:00,58.2,41.2,29.97,NNE,32,1.0,4.0,53,0.00,,,0.00,VWS V14.01,2013-05-26 23:52:00,
2013-05-26 20:02:00,57.8,41.8,29.98,NNE,32,1.0,1.0,55,0.00,,,0.00,VWS V14.01,2013-05-27 00:02:00,
2013-05-26 20:12:00,57.5,42.8,29.98,NNE,32,0.0,1.0,58,0.00,,,0.00,VWS V14.01,2013-05-27 00:12:00,
2013-05-26 20:22:00,57.1,42.5,29.98,NNE,32,0.0,1.0,58,0.00,,,0.00,VWS V14.01,2013-05-27 00:22:00,
2013-05-26 20:32:00,56.4,42.7,29.98,NNE,32,0.0,1.0,60,0.00,,,0.00,VWS V14.01,2013-05-27 00:32:00,
2013-05-26 20:42:00,55.7,42.0,29.98,NNE,32,0.0,1.0,60,0.00,,,0.00,VWS V14.01,2013-05-27 00:42:00,
2013-05-26 20:52:00,54.9,42.1,29.98,NNE,32,0.0,0.0,62,0.00,,,0.00,VWS V14.01,2013-05-27 00:52:00,
2013-05-26 21:02:00,54.2,42.3,29.99,NNE,32,0.0,0.0,64,0.00,,,0.00,VWS V14.01,2013-05-27 01:02:00,
2013-05-26 21:12:00,53.5,42.0,29.99,NNE,32,0.0,0.0,65,0.00,,,0.00,VWS V14.01,2013-05-27 01:12:00,
2013-05-26 21:22:00,52.7,42.5,30.00,NNE,32,0.0,1.0,68,0.00,,,0.00,VWS V14.01,2013-05-27 01:22:00,
2013-05-26 21:32:00,52.1,42.6,30.01,NNE,32,0.0,0.0,70,0.00,,,0.00,VWS V14.01,2013-05-27 01:32:00,
2013-05-26 21:42:00,51.3,42.6,30.01,NNE,32,0.0,1.0,72,0.00,,,0.00,VWS V14.01,2013-05-27 01:42:00,
2013-05-26 21:52:00,52.0,43.3,30.01,NNE,32,0.0,0.0,72,0.00,,,0.00,VWS V14.01,2013-05-27 01:52:00,
2013-05-26 22:02:00,51.6,42.5,30.02,NNE,32,1.0,1.0,71,0.00,,,0.00,VWS V14.01,2013-05-27 02:02:00,
2013-05-26 22:12:00,50.4,42.8,30.02,NNE,32,0.0,1.0,75,0.00,,,0.00,VWS V14.01,2013-05-27 02:12:00,
2013-05-26 22:22:00,49.7,43.1,30.03,NNE,32,0.0,1.0,78,0.00,,,0.00,VWS V14.01,2013-05-27 02:22:00,
2013-05-26 22:32:00,48.9,42.7,30.04,NNE,32,0.0,1.0,79,0.00,,,0.00,VWS V14.01,2013-05-27 02:32:00,
2013-05-26 22:42:00,47.9,41.7,30.04,NNE,32,1.0,1.0,79,0.00,,,0.00,VWS V14.01,2013-05-27 02:42:00,
2013-05-26 22:52:00,46.6,41.7,30.04,NNE,32,1.0,1.0,83,0.00,,,0.00,VWS V14.01,2013-05-27 02:52:00,
2013-05-26 23:02:00,45.9,41.3,30.04,NNE,32,1.0,1.0,84,0.00,,,0.00,VWS V14.01,2013-05-27 03:02:00,
2013-05-26 23:12:00,45.3,41.1,30.04,NNE,32,0.0,2.0,85,0.00,,,0.00,VWS V14.01,2013-05-27 03:12:00,
2013-05-26 23:22:00,45.1,41.2,30.04,NNE,32,0.0,1.0,86,0.00,,,0.00,VWS V14.01,2013-05-27 03:22:00,
2013-05-26 23:32:00,45.0,41.1,30.04,NNE,32,1.0,1.0,86,0.00,,,0.00,VWS V14.01,2013-05-27 03:32:00,
2013-05-26 23:42:00,45.0,41.4,30.04,NNE,32,0.0,1.0,87,0.00,,,0.00,VWS V14.01,2013-05-27 03:42:00,
2013-05-26 23:52:00,45.0,41.4,30.05,NNE,32,1.0,1.0,87,0.00,,,0.00,VWS V14.01,2013-05-27 03:52:00,